»·PEaware :: N516DM KLAX-KSAN

N516DM :: KLAX-KSAN

FLIGHT INFORMATION

Flight Status: Arrived
Operator: Privately registered:
United States
More flights under this callsign
Pilot: Peter S. (18668)
Aircraft: CESSNA 182 SKYLANE
(C182)
More flights by this aircraft type
Origin: KLAX Los Angeles Intl
United States
Destination: KSAN San Diego Intl-Lindbergh
United States
More flights between these airports :: More routes between these airports
Route: +
File this flight plan on PilotEdge
Remarks:
Altitude:
(Current/Filed)
55ft
Speed:
(Current/Filed)
130kts
Departed: 13-May-18 12:20 PM
Arrived: 13-May-18 01:25 PM
Distance/Time
Traveled:
95nm/1:04
Distance/Time
To Go:
Arrived

Flight Plot

Page will automatically refresh every two minutes.


Map Options




Map Legend


Flown Route
Filed Route
Departure Airport
Arrival Airport
Navaid (VOR, NDB)
Fix

Horizontal Profiles

Position Reports

Time Latitude Longitude Heading Altitude Ground
Speed
13-May-18 12:01 33.934101 -118.396971 356 129ft 0kts
13-May-18 12:02 33.934103 -118.396971 356 129ft 0kts
13-May-18 12:03 33.934104 -118.396971 356 129ft 0kts
13-May-18 12:04 33.934105 -118.396971 356 129ft 0kts
13-May-18 12:05 33.934107 -118.396971 356 129ft 0kts
13-May-18 12:06 33.934108 -118.396971 356 129ft 0kts
13-May-18 12:07 33.934109 -118.396971 356 129ft 0kts
13-May-18 12:08 33.934110 -118.396971 356 129ft 0kts
13-May-18 12:09 33.934112 -118.396971 356 129ft 0kts
13-May-18 12:10 33.934113 -118.396972 356 129ft 0kts
13-May-18 12:11 33.934138 -118.397383 260 129ft 7kts
13-May-18 12:12 33.934844 -118.395330 82 129ft 23kts
13-May-18 12:13 33.935523 -118.388686 82 129ft 18kts
13-May-18 12:14 33.936422 -118.382904 353 129ft 2kts
13-May-18 12:15 33.936427 -118.382904 352 129ft 0kts
13-May-18 12:16 33.936428 -118.382904 352 129ft 0kts
13-May-18 12:17 33.937217 -118.383248 273 129ft 0kts
13-May-18 12:18 33.937217 -118.383252 273 129ft 0kts
13-May-18 12:19 33.937217 -118.383255 273 129ft 0kts
13-May-18 12:20 33.936893 -118.387219 264 130ft 70kts
13-May-18 12:21 33.934994 -118.416306 266 948ft 91kts
13-May-18 12:22 33.932485 -118.446021 260 1518ft 89kts
13-May-18 12:23 33.929632 -118.476339 257 2023ft 92kts
13-May-18 12:24 33.907278 -118.480856 169 2530ft 92kts
13-May-18 12:25 33.881742 -118.475118 173 2894ft 103kts
13-May-18 12:26 33.855318 -118.454176 143 2896ft 121kts
13-May-18 12:27 33.828845 -118.428560 143 2900ft 123kts
13-May-18 12:28 33.801723 -118.402183 143 2899ft 126kts
13-May-18 12:29 33.771351 -118.390929 219 2893ft 121kts
13-May-18 12:30 33.746011 -118.417595 222 2910ft 121kts
13-May-18 12:31 33.716714 -118.429815 177 3187ft 109kts
13-May-18 12:32 33.687425 -118.427086 179 3671ft 102kts
13-May-18 12:33 33.659193 -118.426080 180 4173ft 102kts
13-May-18 12:34 33.630064 -118.425381 180 4689ft 105kts
13-May-18 12:35 33.599694 -118.424726 179 5017ft 120kts
13-May-18 12:36 33.565327 -118.424028 179 5090ft 120kts
13-May-18 12:37 33.532678 -118.423312 179 5347ft 114kts
13-May-18 12:38 33.500610 -118.422616 179 5518ft 120kts
13-May-18 12:39 33.466080 -118.421886 179 5517ft 126kts
13-May-18 12:40 33.430600 -118.421122 179 5517ft 127kts
13-May-18 12:41 33.395147 -118.420360 179 5518ft 127kts
13-May-18 12:42 33.371692 -118.397622 95 5523ft 127kts
13-May-18 12:43 33.366602 -118.355350 98 5518ft 129kts
13-May-18 12:44 33.361116 -118.312989 98 5509ft 129kts
13-May-18 12:45 33.355542 -118.270438 98 5503ft 129kts
13-May-18 12:46 33.349969 -118.228006 98 5496ft 129kts
13-May-18 12:47 33.344373 -118.185555 98 5491ft 129kts
13-May-18 12:48 33.338764 -118.142965 98 5485ft 129kts
13-May-18 12:49 33.333149 -118.100613 98 5482ft 129kts
13-May-18 12:50 33.327500 -118.058061 98 5481ft 129kts
13-May-18 12:51 33.321863 -118.015725 98 5482ft 129kts
13-May-18 12:52 33.316164 -117.973433 99 5482ft 128kts
13-May-18 12:53 33.310474 -117.931010 99 5479ft 128kts
13-May-18 12:54 33.304863 -117.888773 99 5482ft 129kts
13-May-18 12:55 33.299184 -117.846463 99 5482ft 129kts
13-May-18 12:56 33.293451 -117.803942 99 5489ft 131kts
13-May-18 12:57 33.287521 -117.760084 99 5490ft 135kts
13-May-18 12:58 33.264884 -117.726522 140 5477ft 135kts
13-May-18 12:59 33.234753 -117.695892 140 5159ft 145kts
13-May-18 13:00 33.204016 -117.664583 140 4859ft 145kts
13-May-18 13:01 33.173133 -117.633180 140 4547ft 141kts
13-May-18 13:02 33.144383 -117.603997 140 4192ft 132kts
13-May-18 13:03 33.116667 -117.575892 141 3890ft 130kts
13-May-18 13:04 33.088764 -117.547617 141 3502ft 134kts
13-May-18 13:05 33.060106 -117.518586 141 3033ft 136kts
13-May-18 13:06 33.032203 -117.487961 114 2595ft 136kts
13-May-18 13:07 33.009051 -117.457190 151 1715ft 105kts
13-May-18 13:08 32.985000 -117.437654 146 1592ft 111kts
13-May-18 13:09 32.960906 -117.413827 149 1484ft 108kts
13-May-18 13:10 32.936765 -117.392058 147 1450ft 107kts
13-May-18 13:11 32.915654 -117.367295 133 1413ft 110kts
13-May-18 13:12 32.888733 -117.358445 171 1460ft 100kts
13-May-18 13:13 32.861709 -117.348651 165 1495ft 101kts
13-May-18 13:14 32.835472 -117.333979 152 1498ft 106kts
13-May-18 13:15 32.817717 -117.307956 90 1511ft 109kts
13-May-18 13:16 32.817829 -117.271651 85 1506ft 110kts
13-May-18 13:17 32.832178 -117.271057 254 1545ft 96kts
13-May-18 13:18 32.808721 -117.266562 138 1503ft 111kts
13-May-18 13:19 32.789006 -117.239997 133 1246ft 109kts
13-May-18 13:20 32.770547 -117.216007 138 945ft 89kts
13-May-18 13:21 32.757561 -117.190769 100 862ft 92kts
13-May-18 13:22 32.752648 -117.160355 102 863ft 93kts
13-May-18 13:23 32.734942 -117.152479 199 670ft 75kts
13-May-18 13:24 32.729172 -117.170769 279 280ft 55kts
13-May-18 13:25 32.733062 -117.187961 286 18ft 31kts
13-May-18 13:26 32.734756 -117.190697 46 18ft 0kts
13-May-18 13:27 32.734757 -117.190696 46 18ft 0kts
13-May-18 13:28 32.734852 -117.190267 92 18ft 8kts
13-May-18 13:29 32.733969 -117.186626 106 18ft 16kts
13-May-18 13:30 32.732782 -117.181722 105 18ft 11kts
13-May-18 13:31 32.733750 -117.179466 12 18ft 8kts
13-May-18 13:32 32.734599 -117.179496 198 18ft 0kts
13-May-18 13:33 32.734599 -117.179496 198 18ft 0kts
13-May-18 13:34 32.734599 -117.179496 198 18ft 0kts
13-May-18 13:35 32.734599 -117.179496 198 18ft 0kts
13-May-18 13:36 32.734599 -117.179496 198 18ft 0kts

Navigation Log

Ident Type
1. KLAX Airport
2. KSAN Airport